Terminal Aerodrome Forecast
Issued by NWS Northern Indiana

Home | Current Version | Previous Version | Text Only | Print | Product List | Glossary Off
Versions: 1 2 3 4 5 6 7 8 9 10 11 12 13 14 15 16 17 18 19 20 21

000
FTUS43 KIWX 091142 AAB
TAFFWA
TAF AMD
KFWA 091142Z 0912/1012 22008KT 3SM -SN OVC030
      TEMPO 0912/0916 21011KT 1SM -SN BKN015
     FM092100 28010G18KT P6SM VCSH OVC020
     FM100900 27009KT P6SM BKN045=

USA.gov is the U.S. government's official web portal to all federal, state and local government web resources and services.